Time,TemperatureF,DewpointF,PressureIn,WindDirection,WindDirectionDegrees,WindSpeedMPH,WindSpeedGustMPH,Humidity,HourlyPrecipIn,Conditions,Clouds,dailyrainin,SolarRadiationWatts/m^2,SoftwareType,DateUTC
2013-02-05 00:01:00,48.4,46.8,29.91,NNE,30,4.0,5.8,94,0.00,CLR,,0.00,0.0,WeatherDisplay:10.37,2013-02-05 06:01:00,
2013-02-05 00:06:00,48.3,46.7,29.90,NNE,30,3.5,4.6,94,0.00,CLR,,0.00,0.0,WeatherDisplay:10.37,2013-02-05 06:06:00,
2013-02-05 00:11:00,48.3,46.9,29.90,NNE,30,2.5,4.0,95,0.00,CLR,,0.00,0.0,WeatherDisplay:10.37,2013-02-05 06:11:00,
2013-02-05 00:16:00,48.2,46.8,29.90,NNE,31,3.5,5.8,95,0.00,CLR,,0.00,0.0,WeatherDisplay:10.37,2013-02-05 06:16:00,
2013-02-05 00:21:00,47.8,46.4,29.90,NNE,31,2.9,3.5,95,0.00,CLR,,0.00,0.0,WeatherDisplay:10.37,2013-02-05 06:21:00,
2013-02-05 00:26:00,47.8,46.4,29.90,NNE,31,3.3,3.5,95,0.00,CLR,,0.00,0.0,WeatherDisplay:10.37,2013-02-05 06:26:00,
2013-02-05 00:31:00,47.6,46.2,29.90,NNE,31,2.6,4.0,95,0.00,CLR,,0.00,0.0,WeatherDisplay:10.37,2013-02-05 06:31:00,
2013-02-05 00:36:00,47.8,46.4,29.90,NNE,31,3.4,4.6,95,0.00,CLR,,0.00,0.0,WeatherDisplay:10.37,2013-02-05 06:36:00,
2013-02-05 00:41:00,47.4,46.0,29.90,NNE,31,3.6,5.0,95,0.00,CLR,,0.00,0.0,WeatherDisplay:10.37,2013-02-05 06:41:00,
2013-02-05 00:46:00,47.7,46.6,29.90,NNE,31,2.5,4.6,96,0.00,CLR,,0.00,0.0,WeatherDisplay:10.37,2013-02-05 06:46:00,
2013-02-05 00:51:00,47.6,46.5,29.90,NNE,31,3.8,4.6,96,0.00,CLR,,0.00,0.0,WeatherDisplay:10.37,2013-02-05 06:51:00,
2013-02-05 00:56:00,47.3,46.2,29.90,NNE,31,4.0,4.6,96,0.00,CLR,,0.00,0.0,WeatherDisplay:10.37,2013-02-05 06:56:00,
2013-02-05 01:01:00,47.5,46.4,29.90,NNE,31,3.5,5.8,96,0.00,CLR,,0.00,0.0,WeatherDisplay:10.37,2013-02-05 07:01:00,
2013-02-05 01:06:00,47.4,46.3,29.90,NNE,31,3.4,5.8,96,0.00,CLR,,0.00,0.0,WeatherDisplay:10.37,2013-02-05 07:06:00,
2013-02-05 01:11:00,47.1,46.0,29.90,NNE,31,1.5,3.5,96,0.00,CLR,,0.00,0.0,WeatherDisplay:10.37,2013-02-05 07:11:00,
2013-02-05 01:16:00,47.4,46.3,29.90,NNE,31,3.2,4.6,96,0.00,CLR,,0.00,0.0,WeatherDisplay:10.37,2013-02-05 07:16:00,
2013-02-05 01:21:00,47.0,45.9,29.89,NNE,31,1.0,4.0,96,0.00,CLR,,0.00,0.0,WeatherDisplay:10.37,2013-02-05 07:21:00,
2013-02-05 01:26:00,47.0,45.9,29.89,NNE,31,2.3,4.0,96,0.00,CLR,,0.00,0.0,WeatherDisplay:10.37,2013-02-05 07:26:00,
2013-02-05 01:31:00,47.8,46.7,29.89,NE,36,2.5,6.0,96,0.00,SCT,,0.00,0.0,WeatherDisplay:10.37,2013-02-05 07:31:00,
2013-02-05 01:36:00,48.2,47.4,29.89,NE,42,0.9,3.5,97,0.00,SCT,,0.00,0.0,WeatherDisplay:10.37,2013-02-05 07:36:00,
2013-02-05 01:41:00,48.3,47.5,29.89,NE,42,3.4,5.0,97,0.00,SCT,,0.00,0.0,WeatherDisplay:10.37,2013-02-05 07:41:00,
2013-02-05 01:46:00,48.5,47.7,29.89,NE,44,4.5,5.8,97,0.00,BKN,,0.00,0.0,WeatherDisplay:10.37,2013-02-05 07:46:00,
2013-02-05 01:51:00,48.7,47.9,29.89,NE,44,3.4,4.6,97,0.00,BKN,,0.00,0.0,WeatherDisplay:10.37,2013-02-05 07:51:00,
2013-02-05 01:56:00,48.7,47.9,29.89,NE,44,2.0,3.5,97,0.00,BKN,,0.00,0.0,WeatherDisplay:10.37,2013-02-05 07:56:00,
2013-02-05 02:01:00,48.7,47.9,29.89,NE,44,0.9,3.0,97,0.00,BKN,,0.00,0.0,WeatherDisplay:10.37,2013-02-05 08:01:00,
2013-02-05 02:06:00,48.7,47.9,29.89,NE,44,2.0,5.8,97,0.00,BKN,,0.00,0.0,WeatherDisplay:10.37,2013-02-05 08:06:00,
2013-02-05 02:11:00,48.7,47.9,29.89,NE,44,4.5,4.6,97,0.00,BKN,,0.00,0.0,WeatherDisplay:10.37,2013-02-05 08:11:00,
2013-02-05 02:16:00,48.7,47.9,29.89,NE,44,0.5,0.0,97,0.00,OVC,,0.00,0.0,WeatherDisplay:10.37,2013-02-05 08:16:00,
2013-02-05 02:21:00,48.7,47.9,29.89,NE,44,0.8,3.0,97,0.00,OVC,,0.00,0.0,WeatherDisplay:10.37,2013-02-05 08:21:00,
2013-02-05 02:26:00,48.8,48.0,29.89,NE,44,0.6,2.3,97,0.00,OVC,,0.00,0.0,WeatherDisplay:10.37,2013-02-05 08:26:00,
2013-02-05 02:31:00,48.8,48.0,29.89,NE,44,0.1,3.0,97,0.00,OVC,,0.00,0.0,WeatherDisplay:10.37,2013-02-05 08:31:00,
2013-02-05 02:36:00,48.8,48.0,29.89,NE,44,0.6,3.5,97,0.00,OVC,,0.00,0.0,WeatherDisplay:10.37,2013-02-05 08:36:00,
2013-02-05 02:41:00,48.8,48.0,29.88,NE,44,3.4,5.8,97,0.00,OVC,,0.00,0.0,WeatherDisplay:10.37,2013-02-05 08:41:00,
2013-02-05 02:46:00,48.8,48.0,29.88,NE,44,2.7,3.5,97,0.00,OVC,,0.00,0.0,WeatherDisplay:10.37,2013-02-05 08:46:00,
2013-02-05 02:51:00,48.8,48.0,29.88,NE,44,0.1,2.3,97,0.00,OVC,,0.00,0.0,WeatherDisplay:10.37,2013-02-05 08:51:00,
2013-02-05 02:56:00,48.8,48.0,29.88,NE,44,0.0,0.0,97,0.00,OVC,,0.00,0.0,WeatherDisplay:10.37,2013-02-05 08:56:00,
2013-02-05 03:01:00,48.8,48.0,29.88,NE,44,1.5,3.5,97,0.00,OVC,,0.00,0.0,WeatherDisplay:10.37,2013-02-05 09:01:00,
2013-02-05 03:06:00,48.7,48.2,29.88,NE,44,0.7,3.5,98,0.00,OVC,,0.00,0.0,WeatherDisplay:10.37,2013-02-05 09:06:00,
2013-02-05 03:11:00,48.7,48.2,29.88,NE,44,0.5,0.0,98,0.00,OVC,,0.00,0.0,WeatherDisplay:10.37,2013-02-05 09:11:00,
2013-02-05 03:16:00,48.7,48.2,29.88,NE,44,3.7,4.6,98,0.00,OVC,,0.00,0.0,WeatherDisplay:10.37,2013-02-05 09:16:00,
2013-02-05 03:21:00,48.7,48.2,29.88,NE,44,1.6,2.0,98,0.00,OVC,,0.00,0.0,WeatherDisplay:10.37,2013-02-05 09:21:00,
2013-02-05 03:26:00,48.7,48.2,29.88,NE,44,0.6,3.5,98,0.00,OVC,,0.00,0.0,WeatherDisplay:10.37,2013-02-05 09:26:00,
2013-02-05 03:31:00,48.7,48.2,29.88,NE,44,2.5,4.6,98,0.00,OVC,,0.00,0.0,WeatherDisplay:10.37,2013-02-05 09:31:00,
2013-02-05 03:36:00,48.7,48.2,29.88,NE,44,3.0,3.5,98,0.00,OVC,,0.00,0.0,WeatherDisplay:10.37,2013-02-05 09:36:00,
2013-02-05 03:41:00,48.7,48.2,29.88,NE,44,2.9,3.5,98,0.00,OVC,,0.00,0.0,WeatherDisplay:10.37,2013-02-05 09:41:00,
2013-02-05 03:46:00,48.7,48.2,29.89,NE,44,1.2,3.5,98,0.00,OVC,,0.00,0.0,WeatherDisplay:10.37,2013-02-05 09:46:00,
2013-02-05 03:51:00,48.7,48.2,29.88,NE,44,0.1,2.3,98,0.00,OVC,,0.00,0.0,WeatherDisplay:10.37,2013-02-05 09:51:00,
2013-02-05 03:56:00,48.8,48.3,29.89,NE,44,0.0,0.0,98,0.00,OVC,,0.00,0.0,WeatherDisplay:10.37,2013-02-05 09:56:00,
2013-02-05 04:01:00,48.7,48.2,29.88,NE,44,0.0,2.3,98,0.00,OVC,,0.00,0.0,WeatherDisplay:10.37,2013-02-05 10:01:00,
2013-02-05 04:06:00,48.7,48.2,29.89,NE,44,3.1,3.5,98,0.00,OVC,,0.00,0.0,WeatherDisplay:10.37,2013-02-05 10:06:00,
2013-02-05 04:11:00,48.7,48.2,29.88,NE,44,1.7,3.5,98,0.00,OVC,,0.00,0.0,WeatherDisplay:10.37,2013-02-05 10:11:00,
2013-02-05 04:16:00,48.7,48.2,29.89,NE,44,2.5,3.5,98,0.00,OVC,,0.00,0.0,WeatherDisplay:10.37,2013-02-05 10:16:00,
2013-02-05 04:21:00,48.6,48.1,29.88,NE,44,0.6,3.5,98,0.00,OVC,,0.00,0.0,WeatherDisplay:10.37,2013-02-05 10:21:00,
2013-02-05 04:26:00,48.6,48.1,29.89,NE,44,1.0,3.5,98,0.00,OVC,,0.00,0.0,WeatherDisplay:10.37,2013-02-05 10:26:00,
2013-02-05 04:31:00,48.6,48.1,29.89,NE,44,2.4,3.5,98,0.00,OVC,,0.00,0.0,WeatherDisplay:10.37,2013-02-05 10:31:00,
2013-02-05 04:36:00,48.6,48.1,29.89,NE,44,0.9,3.0,98,0.00,OVC,,0.00,0.0,WeatherDisplay:10.37,2013-02-05 10:36:00,
2013-02-05 04:41:00,48.6,48.1,29.89,NE,44,1.1,3.5,98,0.00,OVC,,0.00,0.0,WeatherDisplay:10.37,2013-02-05 10:41:00,
2013-02-05 04:46:00,48.6,48.1,29.89,NE,44,0.0,0.0,98,0.00,OVC,,0.00,0.0,WeatherDisplay:10.37,2013-02-05 10:46:00,
2013-02-05 04:51:00,48.6,48.1,29.89,NE,44,2.0,2.0,98,0.00,OVC,,0.00,0.0,WeatherDisplay:10.37,2013-02-05 10:51:00,
2013-02-05 04:56:00,48.5,48.0,29.90,NE,44,0.1,4.0,98,0.00,OVC,,0.00,0.0,WeatherDisplay:10.37,2013-02-05 10:56:00,
2013-02-05 05:01:00,48.5,48.0,29.90,NE,44,3.5,3.5,98,0.00,OVC,,0.00,0.0,WeatherDisplay:10.37,2013-02-05 11:01:00,
2013-02-05 05:06:00,48.5,48.0,29.90,NE,44,0.1,3.5,98,0.00,OVC,,0.00,0.0,WeatherDisplay:10.37,2013-02-05 11:06:00,
2013-02-05 05:11:00,48.5,48.0,29.90,NE,44,0.0,0.0,98,0.00,OVC,,0.00,0.0,WeatherDisplay:10.37,2013-02-05 11:11:00,
2013-02-05 05:16:00,48.5,48.0,29.90,NE,44,0.0,0.0,98,0.00,OVC,,0.00,0.0,WeatherDisplay:10.37,2013-02-05 11:16:00,
2013-02-05 05:21:00,48.5,48.0,29.91,NE,44,0.0,0.0,98,0.00,OVC,,0.00,0.0,WeatherDisplay:10.37,2013-02-05 11:21:00,
2013-02-05 05:26:00,48.5,48.0,29.91,NE,44,0.0,0.0,98,0.00,OVC,,0.00,0.0,WeatherDisplay:10.37,2013-02-05 11:26:00,
2013-02-05 05:31:00,48.5,48.0,29.91,NE,44,0.0,0.0,98,0.00,OVC,,0.00,0.0,WeatherDisplay:10.37,2013-02-05 11:31:00,
2013-02-05 05:36:00,48.4,47.9,29.91,NE,44,3.0,4.0,98,0.00,OVC,,0.00,0.0,WeatherDisplay:10.37,2013-02-05 11:36:00,
2013-02-05 05:41:00,48.5,48.0,29.91,NE,44,1.8,3.0,98,0.00,OVC,,0.00,0.0,WeatherDisplay:10.37,2013-02-05 11:41:00,
2013-02-05 05:46:00,48.3,47.8,29.91,NE,44,2.2,3.5,98,0.00,OVC,,0.00,0.0,WeatherDisplay:10.37,2013-02-05 11:46:00,
2013-02-05 05:51:00,48.4,47.9,29.92,NE,44,2.5,3.5,98,0.00,OVC,,0.00,0.0,WeatherDisplay:10.37,2013-02-05 11:51:00,
2013-02-05 05:56:00,48.3,47.8,29.92,NE,44,4.2,4.6,98,0.00,OVC,,0.00,0.0,WeatherDisplay:10.37,2013-02-05 11:56:00,
2013-02-05 06:01:00,48.2,47.7,29.92,NE,47,2.9,6.9,98,0.00,OVC,,0.00,0.0,WeatherDisplay:10.37,2013-02-05 12:01:00,
2013-02-05 06:06:00,48.2,47.7,29.92,NE,47,2.3,3.5,98,0.00,OVC,,0.00,0.0,WeatherDisplay:10.37,2013-02-05 12:06:00,
2013-02-05 06:11:00,48.3,47.8,29.92,NE,47,0.3,4.6,98,0.00,OVC,,0.00,0.0,WeatherDisplay:10.37,2013-02-05 12:11:00,
2013-02-05 06:16:00,48.4,47.9,29.93,NE,47,1.7,3.5,98,0.00,OVC,,0.00,0.0,WeatherDisplay:10.37,2013-02-05 12:16:00,
2013-02-05 06:21:00,48.4,47.9,29.93,NE,47,2.9,4.6,98,0.00,OVC,,0.00,0.0,WeatherDisplay:10.37,2013-02-05 12:21:00,
2013-02-05 06:26:00,48.3,47.8,29.93,NE,47,0.8,2.3,98,0.00,OVC,,0.00,0.0,WeatherDisplay:10.37,2013-02-05 12:26:00,
2013-02-05 06:31:00,48.4,47.9,29.93,NE,47,0.1,2.3,98,0.00,OVC,,0.00,0.0,WeatherDisplay:10.37,2013-02-05 12:31:00,
2013-02-05 06:36:00,48.3,47.8,29.94,NE,47,3.6,4.6,98,0.00,OVC,,0.00,0.0,WeatherDisplay:10.37,2013-02-05 12:36:00,
2013-02-05 06:41:00,48.3,47.8,29.94,NE,47,0.0,0.0,98,0.00,OVC,,0.00,0.0,WeatherDisplay:10.37,2013-02-05 12:41:00,
2013-02-05 06:46:00,48.4,47.9,29.94,NE,47,0.0,0.0,98,0.00,OVC,,0.00,0.0,WeatherDisplay:10.37,2013-02-05 12:46:00,
2013-02-05 06:51:00,48.4,47.9,29.94,NE,47,1.8,4.6,98,0.00,OVC,,0.00,0.0,WeatherDisplay:10.37,2013-02-05 12:51:00,
2013-02-05 06:56:00,48.3,47.8,29.94,NE,47,0.4,3.5,98,0.00,OVC,,0.00,0.0,WeatherDisplay:10.37,2013-02-05 12:56:00,
2013-02-05 07:01:00,48.3,47.8,29.94,NE,47,2.0,3.5,98,0.00,OVC,,0.00,0.0,WeatherDisplay:10.37,2013-02-05 13:01:00,
2013-02-05 07:06:00,48.3,47.8,29.94,NE,47,1.4,4.0,98,0.00,OVC,,0.00,0.0,WeatherDisplay:10.37,2013-02-05 13:06:00,
2013-02-05 07:11:00,48.3,47.8,29.94,NE,47,2.5,4.6,98,0.00,OVC,,0.00,0.0,WeatherDisplay:10.37,2013-02-05 13:11:00,
2013-02-05 07:16:00,48.3,47.8,29.94,NE,47,1.9,3.5,98,0.00,OVC,,0.00,0.0,WeatherDisplay:10.37,2013-02-05 13:16:00,
2013-02-05 07:21:00,48.3,47.8,29.94,NE,47,3.1,5.8,98,0.00,OVC,,0.00,0.0,WeatherDisplay:10.37,2013-02-05 13:21:00,
2013-02-05 07:26:00,48.3,47.8,29.94,NE,47,3.1,4.6,98,0.00,OVC,,0.00,0.0,WeatherDisplay:10.37,2013-02-05 13:26:00,
2013-02-05 07:31:00,48.3,47.8,29.95,NE,47,1.1,3.5,98,0.00,OVC,,0.00,5.5,WeatherDisplay:10.37,2013-02-05 13:31:00,
2013-02-05 07:36:00,48.4,47.9,29.94,NE,47,2.4,3.5,98,0.00,OVC,,0.00,7.7,WeatherDisplay:10.37,2013-02-05 13:36:00,
2013-02-05 07:41:00,48.4,47.9,29.95,NE,47,0.0,2.3,98,0.00,OVC,,0.00,9.9,WeatherDisplay:10.37,2013-02-05 13:41:00,
2013-02-05 07:46:00,48.4,47.9,29.95,NE,47,0.1,3.5,98,0.00,OVC,,0.00,12.1,WeatherDisplay:10.37,2013-02-05 13:46:00,
2013-02-05 07:51:00,48.4,47.9,29.95,NE,47,1.2,3.5,98,0.00,OVC,,0.00,15.4,WeatherDisplay:10.37,2013-02-05 13:51:00,
2013-02-05 07:56:00,48.6,48.1,29.95,NE,47,0.6,2.0,98,0.00,OVC,,0.00,17.6,WeatherDisplay:10.37,2013-02-05 13:56:00,
2013-02-05 08:01:00,48.7,48.4,29.95,NE,47,0.0,0.0,99,0.00,OVC,,0.00,23.1,WeatherDisplay:10.37,2013-02-05 14:01:00,
2013-02-05 08:06:00,48.7,48.4,29.95,NE,47,1.2,3.5,99,0.00,OVC,,0.00,28.6,WeatherDisplay:10.37,2013-02-05 14:06:00,
2013-02-05 08:11:00,48.8,48.5,29.95,NE,47,0.8,3.5,99,0.00,OVC,,0.00,30.8,WeatherDisplay:10.37,2013-02-05 14:11:00,
2013-02-05 08:16:00,48.9,48.4,29.96,NE,47,0.9,3.0,98,0.00,OVC,,0.00,35.2,WeatherDisplay:10.37,2013-02-05 14:16:00,
2013-02-05 08:21:00,49.0,48.5,29.96,NE,47,0.0,2.3,98,0.00,OVC,,0.00,42.9,WeatherDisplay:10.37,2013-02-05 14:21:00,
2013-02-05 08:26:00,49.1,48.6,29.96,NE,47,2.9,3.5,98,0.00,OVC,,0.00,38.5,WeatherDisplay:10.37,2013-02-05 14:26:00,
2013-02-05 08:31:00,49.1,48.6,29.96,NE,47,1.6,4.0,98,0.00,OVC,,0.00,44.0,WeatherDisplay:10.37,2013-02-05 14:31:00,
2013-02-05 08:36:00,49.1,48.6,29.97,NE,47,1.1,3.5,98,0.00,OVC,,0.00,48.4,WeatherDisplay:10.37,2013-02-05 14:36:00,
2013-02-05 08:41:00,49.4,49.1,29.97,NE,47,0.0,1.1,99,0.00,OVC,,0.00,51.7,WeatherDisplay:10.37,2013-02-05 14:41:00,
2013-02-05 08:46:00,49.4,49.1,29.97,NE,47,0.0,0.0,99,0.00,OVC,,0.00,63.8,WeatherDisplay:10.37,2013-02-05 14:46:00,
2013-02-05 08:51:00,49.4,49.1,29.97,NE,47,3.3,4.0,99,0.00,OVC,,0.00,61.6,WeatherDisplay:10.37,2013-02-05 14:51:00,
2013-02-05 08:56:00,49.5,49.2,29.97,NE,47,1.5,3.5,99,0.00,OVC,,0.00,56.1,WeatherDisplay:10.37,2013-02-05 14:56:00,
2013-02-05 09:01:00,49.6,49.3,29.98,NE,47,1.4,2.3,99,0.00,OVC,,0.00,68.2,WeatherDisplay:10.37,2013-02-05 15:01:00,
2013-02-05 09:06:00,49.6,49.3,29.98,NE,47,3.4,4.6,99,0.00,OVC,,0.00,79.2,WeatherDisplay:10.37,2013-02-05 15:06:00,
2013-02-05 09:11:00,49.8,49.5,29.98,NE,47,0.0,0.0,99,0.00,OVC,,0.00,96.8,WeatherDisplay:10.37,2013-02-05 15:11:00,
2013-02-05 09:16:00,49.8,49.5,29.98,NE,47,0.0,3.5,99,0.00,OVC,,0.00,86.9,WeatherDisplay:10.37,2013-02-05 15:16:00,
2013-02-05 09:21:00,50.0,49.7,29.99,NE,47,0.4,0.0,99,0.00,OVC,,0.00,84.7,WeatherDisplay:10.37,2013-02-05 15:21:00,
2013-02-05 09:26:00,49.9,49.6,29.99,NE,47,0.0,0.0,99,0.00,OVC,,0.00,81.4,WeatherDisplay:10.37,2013-02-05 15:26:00,
2013-02-05 09:31:00,50.2,49.9,29.99,NE,47,0.0,0.0,99,0.00,OVC,,0.00,91.3,WeatherDisplay:10.37,2013-02-05 15:31:00,
2013-02-05 09:36:00,50.3,50.0,29.99,NE,47,0.0,0.0,99,0.00,OVC,,0.00,91.3,WeatherDisplay:10.37,2013-02-05 15:36:00,
2013-02-05 09:41:00,50.3,50.0,30.00,NE,47,0.0,0.0,99,0.00,OVC,,0.00,86.9,WeatherDisplay:10.37,2013-02-05 15:41:00,
2013-02-05 09:46:00,50.4,50.1,30.00,NE,47,0.0,0.0,99,0.00,OVC,,0.00,91.3,WeatherDisplay:10.37,2013-02-05 15:46:00,
2013-02-05 09:51:00,50.5,50.2,30.00,NE,47,0.0,0.0,99,0.00,OVC,,0.00,73.7,WeatherDisplay:10.37,2013-02-05 15:51:00,
2013-02-05 09:56:00,50.6,50.3,30.00,NE,47,0.0,0.0,99,0.00,OVC,,0.00,94.6,WeatherDisplay:10.37,2013-02-05 15:56:00,
2013-02-05 10:01:00,50.7,50.4,30.01,NE,47,0.0,0.0,99,0.00,OVC,,0.00,79.2,WeatherDisplay:10.37,2013-02-05 16:01:00,
2013-02-05 10:06:00,50.8,50.5,30.01,NE,47,0.0,0.0,99,0.00,OVC,,0.00,84.7,WeatherDisplay:10.37,2013-02-05 16:06:00,
2013-02-05 10:11:00,50.8,50.5,30.01,NE,47,0.0,0.0,99,0.00,OVC,,0.00,83.6,WeatherDisplay:10.37,2013-02-05 16:11:00,
2013-02-05 10:16:00,50.9,50.6,30.01,NE,47,0.0,0.0,99,0.00,OVC,,0.00,86.9,WeatherDisplay:10.37,2013-02-05 16:16:00,
2013-02-05 10:21:00,51.1,50.8,30.02,NE,47,1.3,3.5,99,0.00,OVC,,0.00,99.0,WeatherDisplay:10.37,2013-02-05 16:21:00,
2013-02-05 10:26:00,51.2,50.9,30.02,NE,47,1.1,4.6,99,0.00,OVC,,0.00,84.7,WeatherDisplay:10.37,2013-02-05 16:26:00,
2013-02-05 10:31:00,51.1,50.8,30.02,NE,47,0.0,0.0,99,0.00,OVC,,0.00,77.0,WeatherDisplay:10.37,2013-02-05 16:31:00,
2013-02-05 10:36:00,51.4,51.1,30.02,NE,47,0.0,0.0,99,0.00,OVC,,0.00,83.6,WeatherDisplay:10.37,2013-02-05 16:36:00,
2013-02-05 10:41:00,51.4,51.1,30.01,NE,47,0.0,0.0,99,0.00,OVC,,0.00,102.3,WeatherDisplay:10.37,2013-02-05 16:41:00,
2013-02-05 10:46:00,51.6,51.3,30.01,NE,47,1.1,2.3,99,0.00,OVC,,0.00,160.6,WeatherDisplay:10.37,2013-02-05 16:46:00,
2013-02-05 10:51:00,51.9,51.6,30.01,NE,47,0.0,0.0,99,0.00,OVC,,0.00,143.0,WeatherDisplay:10.37,2013-02-05 16:51:00,
2013-02-05 10:56:00,52.2,51.9,30.01,NE,47,0.0,0.0,99,0.00,OVC,,0.00,137.5,WeatherDisplay:10.37,2013-02-05 16:56:00,
2013-02-05 11:01:00,52.2,51.9,30.01,NE,47,0.3,3.5,99,0.00,OVC,,0.00,193.6,WeatherDisplay:10.37,2013-02-05 17:01:00,
2013-02-05 11:06:00,52.4,52.1,30.01,NE,47,1.9,3.5,99,0.00,OVC,,0.00,212.3,WeatherDisplay:10.37,2013-02-05 17:06:00,
2013-02-05 11:11:00,52.7,52.4,30.01,NE,47,0.0,0.0,99,0.00,OVC,,0.00,183.7,WeatherDisplay:10.37,2013-02-05 17:11:00,
2013-02-05 11:16:00,52.6,52.3,30.01,NE,47,0.0,0.0,99,0.00,OVC,,0.00,193.6,WeatherDisplay:10.37,2013-02-05 17:16:00,
2013-02-05 11:21:00,52.8,52.5,30.01,NE,47,2.3,3.5,99,0.00,OVC,,0.00,193.6,WeatherDisplay:10.37,2013-02-05 17:21:00,
2013-02-05 11:26:00,53.1,52.8,30.01,NE,47,0.0,0.0,99,0.00,OVC,,0.00,137.5,WeatherDisplay:10.37,2013-02-05 17:26:00,
2013-02-05 11:31:00,53.1,52.8,30.01,NE,47,0.0,0.0,99,0.00,OVC,,0.00,145.2,WeatherDisplay:10.37,2013-02-05 17:31:00,
2013-02-05 11:36:00,53.1,52.8,30.01,NE,47,0.0,0.0,99,0.00,OVC,,0.00,137.5,WeatherDisplay:10.37,2013-02-05 17:36:00,
2013-02-05 11:41:00,53.4,53.1,30.01,NE,47,1.1,3.0,99,0.00,OVC,,0.00,152.9,WeatherDisplay:10.37,2013-02-05 17:41:00,
2013-02-05 11:46:00,53.2,52.9,30.01,NE,47,2.3,3.5,99,0.00,OVC,,0.00,170.5,WeatherDisplay:10.37,2013-02-05 17:46:00,
2013-02-05 11:51:00,53.8,53.5,30.01,NE,47,0.0,0.0,99,0.00,OVC,,0.00,185.9,WeatherDisplay:10.37,2013-02-05 17:51:00,
2013-02-05 11:56:00,53.4,53.1,30.01,NE,47,0.0,0.0,99,0.00,OVC,,0.00,181.5,WeatherDisplay:10.37,2013-02-05 17:56:00,
2013-02-05 12:01:00,53.6,53.3,30.01,NE,47,0.0,0.0,99,0.00,OVC,,0.00,156.2,WeatherDisplay:10.37,2013-02-05 18:01:00,
2013-02-05 12:06:00,53.8,53.5,30.01,NE,47,0.4,2.3,99,0.00,OVC,,0.00,173.8,WeatherDisplay:10.37,2013-02-05 18:06:00,
2013-02-05 12:11:00,53.7,53.4,30.00,NE,47,0.2,0.0,99,0.00,OVC,,0.00,173.8,WeatherDisplay:10.37,2013-02-05 18:11:00,
2013-02-05 12:16:00,54.0,53.7,30.00,NE,47,2.2,3.0,99,0.00,OVC,,0.00,193.6,WeatherDisplay:10.37,2013-02-05 18:16:00,
2013-02-05 12:21:00,54.2,53.9,30.00,NE,47,0.0,3.5,99,0.00,OVC,,0.00,168.3,WeatherDisplay:10.37,2013-02-05 18:21:00,
2013-02-05 12:26:00,54.1,53.8,30.00,NE,47,1.9,3.5,99,0.00,OVC,,0.00,178.2,WeatherDisplay:10.37,2013-02-05 18:26:00,
2013-02-05 12:31:00,54.3,54.0,29.99,NE,47,0.8,4.0,99,0.00,OVC,,0.00,222.2,WeatherDisplay:10.37,2013-02-05 18:31:00,
2013-02-05 12:36:00,54.8,54.5,29.99,NE,47,2.6,5.8,99,0.00,OVC,,0.00,259.6,WeatherDisplay:10.37,2013-02-05 18:36:00,
2013-02-05 12:41:00,54.9,54.6,29.99,NE,47,0.4,3.5,99,0.00,OVC,,0.00,170.5,WeatherDisplay:10.37,2013-02-05 18:41:00,
2013-02-05 12:46:00,54.9,54.6,29.99,NE,47,0.0,1.1,99,0.00,OVC,,0.00,152.9,WeatherDisplay:10.37,2013-02-05 18:46:00,
2013-02-05 12:51:00,55.3,55.0,29.98,NE,47,3.5,5.8,99,0.00,OVC,,0.00,183.7,WeatherDisplay:10.37,2013-02-05 18:51:00,
2013-02-05 12:56:00,55.5,55.2,29.98,NE,47,2.2,5.8,99,0.00,OVC,,0.00,166.1,WeatherDisplay:10.37,2013-02-05 18:56:00,
2013-02-05 13:01:00,55.4,55.1,29.99,NE,47,1.8,4.0,99,0.00,OVC,,0.00,227.7,WeatherDisplay:10.37,2013-02-05 19:01:00,
2013-02-05 13:06:00,55.7,55.4,29.98,ENE,66,3.7,5.8,99,0.00,OVC,,0.00,227.7,WeatherDisplay:10.37,2013-02-05 19:06:00,
2013-02-05 13:11:00,55.8,55.5,29.98,ENE,66,4.1,5.8,99,0.00,OVC,,0.00,201.3,WeatherDisplay:10.37,2013-02-05 19:11:00,
2013-02-05 13:16:00,56.1,55.8,29.98,ENE,66,1.9,3.5,99,0.00,OVC,,0.00,183.7,WeatherDisplay:10.37,2013-02-05 19:16:00,
2013-02-05 13:21:00,56.3,56.0,29.98,ENE,66,2.1,4.6,99,0.00,OVC,,0.00,209.0,WeatherDisplay:10.37,2013-02-05 19:21:00,
2013-02-05 13:26:00,56.3,56.0,29.98,ENE,66,2.0,2.3,99,0.00,OVC,,0.00,218.9,WeatherDisplay:10.37,2013-02-05 19:26:00,
2013-02-05 13:31:00,56.6,56.3,29.98,ENE,66,0.6,3.5,99,0.00,OVC,,0.00,316.8,WeatherDisplay:10.37,2013-02-05 19:31:00,
2013-02-05 13:36:00,56.9,56.6,29.97,ENE,66,0.1,4.0,99,0.00,OVC,,0.00,268.4,WeatherDisplay:10.37,2013-02-05 19:36:00,
2013-02-05 13:41:00,57.0,56.7,29.97,ENE,66,3.0,4.6,99,0.00,OVC,,0.00,262.9,WeatherDisplay:10.37,2013-02-05 19:41:00,
2013-02-05 13:46:00,57.4,57.1,29.97,ENE,66,4.3,5.0,99,0.00,OVC,,0.00,259.6,WeatherDisplay:10.37,2013-02-05 19:46:00,
2013-02-05 13:51:00,57.6,57.3,29.97,ENE,66,0.0,0.0,99,0.00,OVC,,0.00,334.4,WeatherDisplay:10.37,2013-02-05 19:51:00,
2013-02-05 13:56:00,57.4,57.1,29.97,ENE,66,0.0,0.0,99,0.00,OVC,,0.00,222.2,WeatherDisplay:10.37,2013-02-05 19:56:00,
2013-02-05 14:01:00,57.4,57.1,29.97,ENE,66,0.4,3.5,99,0.00,OVC,,0.00,143.0,WeatherDisplay:10.37,2013-02-05 20:01:00,
2013-02-05 14:06:00,57.3,57.0,29.97,ENE,66,2.4,3.5,99,0.00,OVC,,0.00,170.5,WeatherDisplay:10.37,2013-02-05 20:06:00,
2013-02-05 14:11:00,57.2,56.9,29.97,ENE,66,0.0,0.0,99,0.00,OVC,,0.00,140.8,WeatherDisplay:10.37,2013-02-05 20:11:00,
2013-02-05 14:16:00,57.2,56.9,29.97,ENE,66,0.0,0.0,99,0.00,OVC,,0.00,129.8,WeatherDisplay:10.37,2013-02-05 20:16:00,
2013-02-05 14:21:00,57.4,57.1,29.97,ENE,66,0.0,0.0,99,0.00,OVC,,0.00,185.9,WeatherDisplay:10.37,2013-02-05 20:21:00,
2013-02-05 14:26:00,57.8,57.2,29.97,ENE,66,0.0,0.0,98,0.00,OVC,,0.00,201.3,WeatherDisplay:10.37,2013-02-05 20:26:00,
2013-02-05 14:31:00,57.6,57.0,29.97,ENE,66,0.0,0.0,98,0.00,OVC,,0.00,243.1,WeatherDisplay:10.37,2013-02-05 20:31:00,
2013-02-05 14:36:00,58.1,57.5,29.96,ENE,66,0.0,0.0,98,0.00,OVC,,0.00,206.8,WeatherDisplay:10.37,2013-02-05 20:36:00,
2013-02-05 14:41:00,58.4,57.3,29.96,ENE,66,0.0,0.0,96,0.00,OVC,,0.00,124.3,WeatherDisplay:10.37,2013-02-05 20:41:00,
2013-02-05 14:46:00,58.7,57.3,29.96,ENE,66,0.4,3.5,95,0.00,OVC,,0.00,124.3,WeatherDisplay:10.37,2013-02-05 20:46:00,
2013-02-05 14:51:00,59.0,56.7,29.96,ENE,66,0.4,2.0,92,0.00,OVC,,0.00,147.4,WeatherDisplay:10.37,2013-02-05 20:51:00,
2013-02-05 14:56:00,59.1,56.2,29.96,ENE,66,0.4,3.0,90,0.00,OVC,,0.00,168.3,WeatherDisplay:10.37,2013-02-05 20:56:00,
2013-02-05 15:01:00,59.7,56.5,29.96,ENE,66,0.0,0.0,89,0.00,OVC,,0.00,195.8,WeatherDisplay:10.37,2013-02-05 21:01:00,
2013-02-05 15:06:00,59.9,56.3,29.96,ENE,66,1.9,4.0,88,0.00,OVC,,0.00,193.6,WeatherDisplay:10.37,2013-02-05 21:06:00,
2013-02-05 15:11:00,60.2,56.3,29.96,ENE,66,0.0,0.0,87,0.00,OVC,,0.00,232.1,WeatherDisplay:10.37,2013-02-05 21:11:00,
2013-02-05 15:16:00,60.4,56.2,29.96,ENE,66,0.0,0.0,86,0.00,OVC,,0.00,204.6,WeatherDisplay:10.37,2013-02-05 21:16:00,
2013-02-05 15:21:00,60.6,56.4,29.96,ENE,66,0.0,3.5,86,0.00,OVC,,0.00,163.9,WeatherDisplay:10.37,2013-02-05 21:21:00,
2013-02-05 15:26:00,60.5,56.3,29.96,ENE,66,0.2,3.5,86,0.00,OVC,,0.00,156.2,WeatherDisplay:10.37,2013-02-05 21:26:00,
2013-02-05 15:31:00,60.5,56.0,29.96,ENE,66,0.0,0.0,85,0.00,OVC,,0.00,145.2,WeatherDisplay:10.37,2013-02-05 21:31:00,
2013-02-05 15:36:00,60.5,56.3,29.96,ENE,66,0.0,0.0,86,0.00,OVC,,0.00,124.3,WeatherDisplay:10.37,2013-02-05 21:36:00,
2013-02-05 15:41:00,60.4,56.2,29.96,ENE,66,3.2,4.6,86,0.00,OVC,,0.00,96.8,WeatherDisplay:10.37,2013-02-05 21:41:00,
2013-02-05 15:46:00,60.2,56.0,29.96,ENE,66,1.7,3.5,86,0.00,OVC,,0.00,84.7,WeatherDisplay:10.37,2013-02-05 21:46:00,
2013-02-05 15:51:00,60.1,55.9,29.96,ENE,66,0.1,0.0,86,0.00,OVC,,0.00,79.2,WeatherDisplay:10.37,2013-02-05 21:51:00,
2013-02-05 15:56:00,60.0,55.8,29.96,ENE,66,0.0,0.0,86,0.00,OVC,,0.00,63.8,WeatherDisplay:10.37,2013-02-05 21:56:00,
2013-02-05 16:01:00,59.7,55.8,29.96,ENE,66,3.6,5.8,87,0.00,OVC,,0.00,58.3,WeatherDisplay:10.37,2013-02-05 22:01:00,
2013-02-05 16:06:00,59.5,55.6,29.96,ENE,66,4.1,4.6,87,0.00,OVC,,0.00,58.3,WeatherDisplay:10.37,2013-02-05 22:06:00,
2013-02-05 16:11:00,59.6,55.7,29.96,ENE,58,3.8,8.1,87,0.00,OVC,,0.00,66.0,WeatherDisplay:10.37,2013-02-05 22:11:00,
2013-02-05 16:16:00,59.6,55.7,29.96,NE,54,4.1,4.1,87,0.00,OVC,,0.00,71.5,WeatherDisplay:10.37,2013-02-05 22:16:00,
2013-02-05 16:21:00,59.5,55.6,29.97,NE,54,2.5,5.8,87,0.00,OVC,,0.00,61.6,WeatherDisplay:10.37,2013-02-05 22:21:00,
2013-02-05 16:26:00,59.5,55.6,29.97,NE,47,2.0,5.8,87,0.00,OVC,,0.00,56.1,WeatherDisplay:10.37,2013-02-05 22:26:00,
2013-02-05 16:31:00,59.4,55.8,29.97,NE,38,6.1,7.0,88,0.00,OVC,,0.00,66.0,WeatherDisplay:10.37,2013-02-05 22:31:00,
2013-02-05 16:36:00,59.3,55.7,29.97,NE,38,3.1,4.0,88,0.00,OVC,,0.00,58.3,WeatherDisplay:10.37,2013-02-05 22:36:00,
2013-02-05 16:41:00,59.3,55.7,29.97,NE,39,0.8,4.6,88,0.00,OVC,,0.00,56.1,WeatherDisplay:10.37,2013-02-05 22:41:00,
2013-02-05 16:46:00,59.2,55.6,29.97,NE,37,5.1,6.0,88,0.00,OVC,,0.00,40.7,WeatherDisplay:10.37,2013-02-05 22:46:00,
2013-02-05 16:51:00,58.9,55.4,29.97,NE,43,4.8,5.8,88,0.00,OVC,,0.00,28.6,WeatherDisplay:10.37,2013-02-05 22:51:00,
2013-02-05 16:56:00,58.7,55.5,29.97,NE,42,4.1,8.1,89,0.00,OVC,,0.00,17.6,WeatherDisplay:10.37,2013-02-05 22:56:00,
2013-02-05 17:01:00,58.6,55.4,29.97,NE,42,2.0,5.8,89,0.00,OVC,,0.00,15.4,WeatherDisplay:10.37,2013-02-05 23:01:00,
2013-02-05 17:06:00,58.6,55.4,29.97,NE,43,4.6,8.1,89,0.00,OVC,,0.00,17.6,WeatherDisplay:10.37,2013-02-05 23:06:00,
2013-02-05 17:11:00,58.5,55.3,29.96,NE,41,4.5,8.1,89,0.00,OVC,,0.00,23.1,WeatherDisplay:10.37,2013-02-05 23:11:00,
2013-02-05 17:16:00,58.6,55.4,29.96,NE,41,2.1,4.6,89,0.00,OVC,,0.00,27.5,WeatherDisplay:10.37,2013-02-05 23:16:00,
2013-02-05 17:21:00,58.6,55.4,29.96,NE,41,4.2,4.6,89,0.00,OVC,,0.00,23.1,WeatherDisplay:10.37,2013-02-05 23:21:00,
2013-02-05 17:26:00,58.6,55.4,29.96,NE,41,1.8,4.6,89,0.00,OVC,,0.00,15.4,WeatherDisplay:10.37,2013-02-05 23:26:00,
2013-02-05 17:31:00,58.6,55.4,29.96,NE,41,1.2,3.5,89,0.00,OVC,,0.00,15.4,WeatherDisplay:10.37,2013-02-05 23:31:00,
2013-02-05 17:36:00,58.6,55.4,29.96,NE,41,3.2,4.6,89,0.00,OVC,,0.00,9.9,WeatherDisplay:10.37,2013-02-05 23:36:00,
2013-02-05 17:41:00,58.6,55.1,29.96,NE,41,1.7,3.5,88,0.00,OVC,,0.00,7.7,WeatherDisplay:10.37,2013-02-05 23:41:00,
2013-02-05 17:46:00,58.6,55.4,29.96,NE,41,2.5,4.6,89,0.00,OVC,,0.00,5.5,WeatherDisplay:10.37,2013-02-05 23:46:00,
2013-02-05 17:51:00,58.5,55.3,29.97,NE,41,2.4,5.0,89,0.00,OVC,,0.00,0.0,WeatherDisplay:10.37,2013-02-05 23:51:00,
2013-02-05 17:56:00,58.4,55.2,29.97,NE,41,2.4,4.6,89,0.00,OVC,,0.00,0.0,WeatherDisplay:10.37,2013-02-05 23:56:00,
2013-02-05 18:01:00,58.4,55.2,29.97,NE,41,0.7,3.5,89,0.00,OVC,,0.00,0.0,WeatherDisplay:10.37,2013-02-06 00:01:00,
2013-02-05 18:06:00,58.2,55.0,29.97,NE,41,0.0,2.3,89,0.00,OVC,,0.00,0.0,WeatherDisplay:10.37,2013-02-06 00:06:00,
2013-02-05 18:11:00,58.2,55.3,29.97,NE,41,0.0,0.0,90,0.00,OVC,,0.00,0.0,WeatherDisplay:10.37,2013-02-06 00:11:00,
2013-02-05 18:16:00,58.2,55.3,29.97,NE,41,0.0,0.0,90,0.00,OVC,,0.00,0.0,WeatherDisplay:10.37,2013-02-06 00:16:00,
2013-02-05 18:21:00,58.0,54.8,29.97,NE,41,0.0,0.0,89,0.00,OVC,,0.00,0.0,WeatherDisplay:10.37,2013-02-06 00:21:00,
2013-02-05 18:26:00,57.8,54.9,29.97,NE,41,0.0,0.0,90,0.00,OVC,,0.00,0.0,WeatherDisplay:10.37,2013-02-06 00:26:00,
2013-02-05 18:31:00,57.6,54.7,29.97,NE,41,0.0,0.0,90,0.00,OVC,,0.00,0.0,WeatherDisplay:10.37,2013-02-06 00:31:00,
2013-02-05 18:36:00,57.5,54.9,29.97,NE,41,0.0,0.0,91,0.00,OVC,,0.00,0.0,WeatherDisplay:10.37,2013-02-06 00:36:00,
2013-02-05 18:41:00,57.4,54.8,29.98,NE,41,0.0,0.0,91,0.00,OVC,,0.00,0.0,WeatherDisplay:10.37,2013-02-06 00:41:00,
2013-02-05 18:46:00,57.2,54.6,29.98,NE,41,0.0,0.0,91,0.00,OVC,,0.00,0.0,WeatherDisplay:10.37,2013-02-06 00:46:00,
2013-02-05 18:51:00,56.9,54.3,29.98,NE,41,0.0,0.0,91,0.00,OVC,,0.00,0.0,WeatherDisplay:10.37,2013-02-06 00:51:00,
2013-02-05 18:56:00,56.2,53.9,29.98,NE,41,0.0,0.0,92,0.00,OVC,,0.00,0.0,WeatherDisplay:10.37,2013-02-06 00:56:00,
2013-02-05 19:01:00,55.2,53.2,29.98,NE,41,0.0,0.0,93,0.00,OVC,,0.00,0.0,WeatherDisplay:10.37,2013-02-06 01:01:00,
2013-02-05 19:06:00,54.5,52.8,29.98,NE,41,0.0,0.0,94,0.00,OVC,,0.00,0.0,WeatherDisplay:10.37,2013-02-06 01:06:00,
2013-02-05 19:11:00,54.3,52.9,29.98,NE,41,0.0,0.0,95,0.00,OVC,,0.00,0.0,WeatherDisplay:10.37,2013-02-06 01:11:00,
2013-02-05 19:16:00,53.9,52.5,29.99,NE,41,0.0,0.0,95,0.00,BKN,,0.00,0.0,WeatherDisplay:10.37,2013-02-06 01:16:00,
2013-02-05 19:21:00,53.3,51.9,29.99,NE,41,0.0,0.0,95,0.00,BKN,,0.00,0.0,WeatherDisplay:10.37,2013-02-06 01:21:00,
2013-02-05 19:26:00,53.1,52.0,29.99,NE,41,0.0,0.0,96,0.00,BKN,,0.00,0.0,WeatherDisplay:10.37,2013-02-06 01:26:00,
2013-02-05 19:31:00,52.9,51.8,29.99,NE,41,0.0,0.0,96,0.00,SCT,,0.00,0.0,WeatherDisplay:10.37,2013-02-06 01:31:00,
2013-02-05 19:36:00,52.8,51.7,29.99,NE,41,0.0,0.0,96,0.00,SCT,,0.00,0.0,WeatherDisplay:10.37,2013-02-06 01:36:00,
2013-02-05 19:41:00,53.1,52.3,29.99,NE,41,0.0,0.0,97,0.00,SCT,,0.00,0.0,WeatherDisplay:10.37,2013-02-06 01:41:00,
2013-02-05 19:46:00,53.2,52.4,29.99,NE,41,0.0,0.0,97,0.00,CLR,,0.00,0.0,WeatherDisplay:10.37,2013-02-06 01:46:00,
2013-02-05 19:51:00,53.1,52.3,29.99,NE,41,0.0,0.0,97,0.00,CLR,,0.00,0.0,WeatherDisplay:10.37,2013-02-06 01:51:00,
2013-02-05 19:56:00,52.7,51.9,29.99,NE,41,0.0,0.0,97,0.00,CLR,,0.00,0.0,WeatherDisplay:10.37,2013-02-06 01:56:00,
2013-02-05 20:01:00,52.3,51.5,30.00,NE,41,3.5,3.5,97,0.00,CLR,,0.00,0.0,WeatherDisplay:10.37,2013-02-06 02:01:00,
2013-02-05 20:06:00,52.1,51.3,30.00,NE,41,2.6,3.5,97,0.00,CLR,,0.00,0.0,WeatherDisplay:10.37,2013-02-06 02:06:00,
2013-02-05 20:11:00,51.8,51.0,30.00,NE,41,3.3,3.5,97,0.00,CLR,,0.00,0.0,WeatherDisplay:10.37,2013-02-06 02:11:00,
2013-02-05 20:16:00,51.8,51.0,30.00,NE,41,1.7,3.5,97,0.00,CLR,,0.00,0.0,WeatherDisplay:10.37,2013-02-06 02:16:00,
2013-02-05 20:21:00,50.8,50.0,30.00,NE,41,1.1,2.0,97,0.00,CLR,,0.00,0.0,WeatherDisplay:10.37,2013-02-06 02:21:00,
2013-02-05 20:26:00,50.7,49.9,30.00,NE,41,0.5,1.0,97,0.00,CLR,,0.00,0.0,WeatherDisplay:10.37,2013-02-06 02:26:00,
2013-02-05 20:31:00,50.5,49.7,30.00,NE,41,0.0,0.0,97,0.00,CLR,,0.00,0.0,WeatherDisplay:10.37,2013-02-06 02:31:00,
2013-02-05 20:36:00,50.2,49.4,30.00,NE,41,0.0,0.0,97,0.00,CLR,,0.00,0.0,WeatherDisplay:10.37,2013-02-06 02:36:00,
2013-02-05 20:41:00,50.5,49.7,30.00,NE,41,0.2,3.5,97,0.00,CLR,,0.00,0.0,WeatherDisplay:10.37,2013-02-06 02:41:00,
2013-02-05 20:46:00,50.4,49.9,30.00,NE,41,0.8,3.5,98,0.00,SCT,,0.00,0.0,WeatherDisplay:10.37,2013-02-06 02:46:00,
2013-02-05 20:51:00,50.7,50.2,30.01,NE,41,0.0,1.1,98,0.00,SCT,,0.00,0.0,WeatherDisplay:10.37,2013-02-06 02:51:00,
2013-02-05 20:56:00,50.4,49.9,30.01,NE,41,0.0,0.0,98,0.00,SCT,,0.00,0.0,WeatherDisplay:10.37,2013-02-06 02:56:00,
2013-02-05 21:01:00,51.0,50.5,30.01,NE,41,0.0,0.0,98,0.00,SCT,,0.00,0.0,WeatherDisplay:10.37,2013-02-06 03:01:00,
2013-02-05 21:06:00,51.5,51.0,30.01,NE,41,0.0,0.0,98,0.00,SCT,,0.00,0.0,WeatherDisplay:10.37,2013-02-06 03:06:00,
2013-02-05 21:11:00,51.7,51.2,30.01,NE,41,1.1,3.5,98,0.00,SCT,,0.00,0.0,WeatherDisplay:10.37,2013-02-06 03:11:00,
2013-02-05 21:16:00,51.5,51.0,30.01,NE,41,0.0,0.0,98,0.00,BKN,,0.00,0.0,WeatherDisplay:10.37,2013-02-06 03:16:00,
2013-02-05 21:21:00,50.9,50.4,30.01,NE,41,0.0,0.0,98,0.00,BKN,,0.00,0.0,WeatherDisplay:10.37,2013-02-06 03:21:00,
2013-02-05 21:26:00,50.6,50.1,30.01,NE,41,0.0,0.0,98,0.00,BKN,,0.00,0.0,WeatherDisplay:10.37,2013-02-06 03:26:00,
2013-02-05 21:31:00,50.2,49.7,30.01,NE,41,0.0,0.0,98,0.00,OVC,,0.00,0.0,WeatherDisplay:10.37,2013-02-06 03:31:00,
2013-02-05 21:36:00,50.5,50.0,30.01,NE,41,0.0,0.0,98,0.00,OVC,,0.00,0.0,WeatherDisplay:10.37,2013-02-06 03:36:00,
2013-02-05 21:41:00,50.3,49.8,30.01,NE,41,0.0,0.0,98,0.00,OVC,,0.00,0.0,WeatherDisplay:10.37,2013-02-06 03:41:00,
2013-02-05 21:46:00,49.8,49.3,30.01,NE,41,0.0,0.0,98,0.00,SCT,,0.00,0.0,WeatherDisplay:10.37,2013-02-06 03:46:00,
2013-02-05 21:51:00,50.0,49.5,30.01,NE,41,0.0,0.0,98,0.00,SCT,,0.00,0.0,WeatherDisplay:10.37,2013-02-06 03:51:00,
2013-02-05 21:56:00,50.8,50.3,30.01,NE,41,0.0,0.0,98,0.00,SCT,,0.00,0.0,WeatherDisplay:10.37,2013-02-06 03:56:00,
2013-02-05 22:01:00,50.9,50.4,30.01,NE,41,0.1,0.0,98,0.00,SCT,,0.00,0.0,WeatherDisplay:10.37,2013-02-06 04:01:00,
2013-02-05 22:06:00,51.8,51.3,30.00,NE,46,3.2,3.5,98,0.00,SCT,,0.00,0.0,WeatherDisplay:10.37,2013-02-06 04:06:00,
2013-02-05 22:11:00,51.8,51.3,30.01,NE,46,3.3,5.8,98,0.00,SCT,,0.00,0.0,WeatherDisplay:10.37,2013-02-06 04:11:00,
2013-02-05 22:16:00,51.6,51.1,30.01,NE,46,3.2,4.0,98,0.00,SCT,,0.00,0.0,WeatherDisplay:10.37,2013-02-06 04:16:00,
2013-02-05 22:21:00,51.6,51.1,30.01,NE,46,2.5,4.0,98,0.00,SCT,,0.00,0.0,WeatherDisplay:10.37,2013-02-06 04:21:00,
2013-02-05 22:26:00,51.6,51.1,30.01,NE,46,1.9,3.0,98,0.00,SCT,,0.00,0.0,WeatherDisplay:10.37,2013-02-06 04:26:00,
2013-02-05 22:31:00,51.6,51.1,30.01,NE,46,0.7,2.0,98,0.00,OVC,,0.00,0.0,WeatherDisplay:10.37,2013-02-06 04:31:00,
2013-02-05 22:36:00,51.7,51.2,30.01,NE,46,0.4,2.3,98,0.00,OVC,,0.00,0.0,WeatherDisplay:10.37,2013-02-06 04:36:00,
2013-02-05 22:41:00,51.7,51.2,30.01,NE,46,0.0,0.0,98,0.00,OVC,,0.00,0.0,WeatherDisplay:10.37,2013-02-06 04:41:00,
2013-02-05 22:46:00,51.7,51.4,30.01,NE,46,0.0,0.0,99,0.00,OVC,,0.00,0.0,WeatherDisplay:10.37,2013-02-06 04:46:00,
2013-02-05 22:51:00,51.7,51.4,30.01,NE,46,0.0,0.0,99,0.00,OVC,,0.00,0.0,WeatherDisplay:10.37,2013-02-06 04:51:00,
2013-02-05 22:56:00,51.9,51.6,30.01,NE,46,0.0,1.1,99,0.00,OVC,,0.00,0.0,WeatherDisplay:10.37,2013-02-06 04:56:00,
2013-02-05 23:00:00,52.0,51.5,30.01,NE,46,0.0,0.0,98,0.00,OVC,,0.00,0.0,WeatherDisplay:10.37,2013-02-06 05:00:00,
2013-02-05 23:05:00,52.0,51.5,30.01,NE,46,0.0,0.0,98,0.00,OVC,,0.00,0.0,WeatherDisplay:10.37,2013-02-06 05:05:00,
2013-02-05 23:10:00,51.9,51.4,30.01,NE,46,0.0,0.0,98,0.00,OVC,,0.00,0.0,WeatherDisplay:10.37,2013-02-06 05:10:00,
2013-02-05 23:15:00,51.9,51.6,30.01,NE,46,0.0,0.0,99,0.00,OVC,,0.00,0.0,WeatherDisplay:10.37,2013-02-06 05:15:00,
2013-02-05 23:20:00,51.8,51.5,30.01,NE,46,0.0,0.0,99,0.00,OVC,,0.00,0.0,WeatherDisplay:10.37,2013-02-06 05:20:00,
2013-02-05 23:25:00,51.7,51.4,30.01,NE,46,0.0,0.0,99,0.00,OVC,,0.00,0.0,WeatherDisplay:10.37,2013-02-06 05:25:00,
2013-02-05 23:30:00,51.7,51.4,30.01,NE,46,0.0,0.0,99,0.00,OVC,,0.00,0.0,WeatherDisplay:10.37,2013-02-06 05:30:00,
2013-02-05 23:35:00,51.7,51.4,30.01,NE,46,0.0,0.0,99,0.00,OVC,,0.00,0.0,WeatherDisplay:10.37,2013-02-06 05:35:00,
2013-02-05 23:40:00,51.6,51.3,30.02,NE,46,2.4,3.5,99,0.00,OVC,,0.00,0.0,WeatherDisplay:10.37,2013-02-06 05:40:00,
2013-02-05 23:45:00,51.5,51.2,30.02,NE,46,2.0,3.5,99,0.00,OVC,,0.00,0.0,WeatherDisplay:10.37,2013-02-06 05:45:00,
2013-02-05 23:50:00,51.5,51.2,30.02,NE,46,2.0,3.5,99,0.00,OVC,,0.00,0.0,WeatherDisplay:10.37,2013-02-06 05:50:00,
2013-02-05 23:55:00,51.5,51.2,30.02,NE,46,1.0,3.5,99,0.00,OVC,,0.00,0.0,WeatherDisplay:10.37,2013-02-06 05:55:00,